sensor_id;sensor_type;location;lat;lon;timestamp;P1;durP1;ratioP1;P2;durP2;ratioP2
19810;SDS011;10065;49.632;8.346;2022-09-13T00:00:48;8.50;;;3.63;;
19810;SDS011;10065;49.632;8.346;2022-09-13T00:03:17;7.63;;;3.10;;
19810;SDS011;10065;49.632;8.346;2022-09-13T00:05:46;5.27;;;3.27;;
19810;SDS011;10065;49.632;8.346;2022-09-13T00:08:14;16.03;;;3.70;;
19810;SDS011;10065;49.632;8.346;2022-09-13T00:10:43;5.00;;;2.97;;
19810;SDS011;10065;49.632;8.346;2022-09-13T00:13:11;5.77;;;3.20;;
19810;SDS011;10065;49.632;8.346;2022-09-13T00:15:42;6.47;;;3.33;;
19810;SDS011;10065;49.632;8.346;2022-09-13T00:18:10;5.97;;;2.70;;
19810;SDS011;10065;49.632;8.346;2022-09-13T00:20:38;7.80;;;3.47;;
19810;SDS011;10065;49.632;8.346;2022-09-13T00:23:08;5.90;;;3.10;;
19810;SDS011;10065;49.632;8.346;2022-09-13T00:25:36;6.57;;;3.33;;
19810;SDS011;10065;49.632;8.346;2022-09-13T00:28:04;5.57;;;3.50;;
19810;SDS011;10065;49.632;8.346;2022-09-13T00:30:32;5.10;;;3.10;;
19810;SDS011;10065;49.632;8.346;2022-09-13T00:32:59;6.03;;;3.40;;
19810;SDS011;10065;49.632;8.346;2022-09-13T00:35:29;5.43;;;3.13;;
19810;SDS011;10065;49.632;8.346;2022-09-13T00:37:58;6.27;;;3.07;;
19810;SDS011;10065;49.632;8.346;2022-09-13T00:40:27;6.40;;;3.27;;
19810;SDS011;10065;49.632;8.346;2022-09-13T00:42:56;4.63;;;3.50;;
19810;SDS011;10065;49.632;8.346;2022-09-13T00:45:24;5.57;;;3.17;;
19810;SDS011;10065;49.632;8.346;2022-09-13T00:47:52;5.47;;;3.10;;
19810;SDS011;10065;49.632;8.346;2022-09-13T00:50:23;8.23;;;3.93;;
19810;SDS011;10065;49.632;8.346;2022-09-13T00:52:57;9.00;;;3.30;;
19810;SDS011;10065;49.632;8.346;2022-09-13T00:55:30;4.87;;;3.53;;
19810;SDS011;10065;49.632;8.346;2022-09-13T00:58:03;5.80;;;3.80;;
19810;SDS011;10065;49.632;8.346;2022-09-13T01:00:37;8.33;;;4.07;;
19810;SDS011;10065;49.632;8.346;2022-09-13T01:03:07;9.93;;;3.53;;
19810;SDS011;10065;49.632;8.346;2022-09-13T01:05:39;7.00;;;3.50;;
19810;SDS011;10065;49.632;8.346;2022-09-13T01:08:08;5.30;;;3.53;;
19810;SDS011;10065;49.632;8.346;2022-09-13T01:10:42;8.07;;;3.80;;
19810;SDS011;10065;49.632;8.346;2022-09-13T01:13:11;7.67;;;3.83;;
19810;SDS011;10065;49.632;8.346;2022-09-13T01:15:42;8.03;;;4.17;;
19810;SDS011;10065;49.632;8.346;2022-09-13T01:18:10;5.87;;;4.23;;
19810;SDS011;10065;49.632;8.346;2022-09-13T01:20:44;6.90;;;4.30;;
19810;SDS011;10065;49.632;8.346;2022-09-13T01:23:37;10.73;;;4.10;;
19810;SDS011;10065;49.632;8.346;2022-09-13T01:26:29;17.23;;;4.40;;
19810;SDS011;10065;49.632;8.346;2022-09-13T01:29:30;7.40;;;4.07;;
19810;SDS011;10065;49.632;8.346;2022-09-13T01:32:15;6.47;;;3.83;;
19810;SDS011;10065;49.632;8.346;2022-09-13T01:34:54;8.30;;;4.40;;
19810;SDS011;10065;49.632;8.346;2022-09-13T01:37:38;7.70;;;4.57;;
19810;SDS011;10065;49.632;8.346;2022-09-13T01:40:19;5.67;;;3.80;;
19810;SDS011;10065;49.632;8.346;2022-09-13T01:43:06;7.40;;;4.90;;
19810;SDS011;10065;49.632;8.346;2022-09-13T01:45:52;6.37;;;4.20;;
19810;SDS011;10065;49.632;8.346;2022-09-13T01:48:33;6.57;;;4.30;;
19810;SDS011;10065;49.632;8.346;2022-09-13T01:51:10;7.97;;;5.40;;
19810;SDS011;10065;49.632;8.346;2022-09-13T01:53:47;7.27;;;5.00;;
19810;SDS011;10065;49.632;8.346;2022-09-13T01:56:21;7.77;;;4.57;;
19810;SDS011;10065;49.632;8.346;2022-09-13T01:58:53;7.73;;;4.83;;
19810;SDS011;10065;49.632;8.346;2022-09-13T02:01:27;5.83;;;4.33;;
19810;SDS011;10065;49.632;8.346;2022-09-13T02:04:02;8.00;;;4.53;;
19810;SDS011;10065;49.632;8.346;2022-09-13T02:06:33;5.90;;;4.23;;
19810;SDS011;10065;49.632;8.346;2022-09-13T02:09:07;7.50;;;4.53;;
19810;SDS011;10065;49.632;8.346;2022-09-13T02:11:38;7.63;;;4.13;;
19810;SDS011;10065;49.632;8.346;2022-09-13T02:14:10;5.57;;;3.80;;
19810;SDS011;10065;49.632;8.346;2022-09-13T02:16:42;6.53;;;3.93;;
19810;SDS011;10065;49.632;8.346;2022-09-13T02:19:16;7.07;;;3.83;;
19810;SDS011;10065;49.632;8.346;2022-09-13T02:21:49;5.40;;;3.87;;
19810;SDS011;10065;49.632;8.346;2022-09-13T02:24:21;7.73;;;3.90;;
19810;SDS011;10065;49.632;8.346;2022-09-13T02:26:55;11.13;;;4.00;;
19810;SDS011;10065;49.632;8.346;2022-09-13T02:29:27;8.30;;;4.60;;
19810;SDS011;10065;49.632;8.346;2022-09-13T02:31:59;7.50;;;4.17;;
19810;SDS011;10065;49.632;8.346;2022-09-13T02:34:33;7.20;;;3.97;;
19810;SDS011;10065;49.632;8.346;2022-09-13T02:37:06;6.80;;;4.07;;
19810;SDS011;10065;49.632;8.346;2022-09-13T02:39:36;5.80;;;3.83;;
19810;SDS011;10065;49.632;8.346;2022-09-13T02:42:07;6.57;;;3.87;;
19810;SDS011;10065;49.632;8.346;2022-09-13T02:44:40;6.53;;;4.00;;
19810;SDS011;10065;49.632;8.346;2022-09-13T02:47:14;8.20;;;3.80;;
19810;SDS011;10065;49.632;8.346;2022-09-13T02:50:00;7.37;;;3.97;;
19810;SDS011;10065;49.632;8.346;2022-09-13T02:52:37;6.87;;;4.30;;
19810;SDS011;10065;49.632;8.346;2022-09-13T02:55:15;6.63;;;3.97;;
19810;SDS011;10065;49.632;8.346;2022-09-13T02:57:51;6.03;;;4.00;;
19810;SDS011;10065;49.632;8.346;2022-09-13T03:00:26;7.50;;;4.17;;
19810;SDS011;10065;49.632;8.346;2022-09-13T03:02:55;6.97;;;3.87;;
19810;SDS011;10065;49.632;8.346;2022-09-13T03:05:27;6.37;;;3.93;;
19810;SDS011;10065;49.632;8.346;2022-09-13T03:07:54;6.70;;;3.80;;
19810;SDS011;10065;49.632;8.346;2022-09-13T03:10:22;6.40;;;3.90;;
19810;SDS011;10065;49.632;8.346;2022-09-13T03:12:54;9.70;;;3.87;;
19810;SDS011;10065;49.632;8.346;2022-09-13T03:15:52;7.47;;;3.50;;
19810;SDS011;10065;49.632;8.346;2022-09-13T03:18:34;6.63;;;3.90;;
19810;SDS011;10065;49.632;8.346;2022-09-13T03:21:16;6.57;;;3.90;;
19810;SDS011;10065;49.632;8.346;2022-09-13T03:23:55;6.00;;;4.10;;
19810;SDS011;10065;49.632;8.346;2022-09-13T03:26:34;8.23;;;3.97;;
19810;SDS011;10065;49.632;8.346;2022-09-13T03:29:16;6.87;;;3.47;;
19810;SDS011;10065;49.632;8.346;2022-09-13T03:31:55;6.60;;;4.07;;
19810;SDS011;10065;49.632;8.346;2022-09-13T03:34:32;7.77;;;3.70;;
19810;SDS011;10065;49.632;8.346;2022-09-13T03:37:09;6.50;;;3.23;;
19810;SDS011;10065;49.632;8.346;2022-09-13T03:39:45;7.23;;;4.03;;
19810;SDS011;10065;49.632;8.346;2022-09-13T03:42:20;8.90;;;3.20;;
19810;SDS011;10065;49.632;8.346;2022-09-13T03:44:52;5.63;;;3.20;;
19810;SDS011;10065;49.632;8.346;2022-09-13T03:47:23;7.27;;;3.70;;
19810;SDS011;10065;49.632;8.346;2022-09-13T03:49:54;7.30;;;3.53;;
19810;SDS011;10065;49.632;8.346;2022-09-13T03:52:24;6.37;;;3.63;;
19810;SDS011;10065;49.632;8.346;2022-09-13T03:54:53;9.00;;;3.93;;
19810;SDS011;10065;49.632;8.346;2022-09-13T03:57:21;5.43;;;3.37;;
19810;SDS011;10065;49.632;8.346;2022-09-13T03:59:50;4.80;;;3.43;;
19810;SDS011;10065;49.632;8.346;2022-09-13T04:02:19;6.90;;;3.67;;
19810;SDS011;10065;49.632;8.346;2022-09-13T04:04:48;6.83;;;4.10;;
19810;SDS011;10065;49.632;8.346;2022-09-13T04:07:17;10.50;;;3.97;;
19810;SDS011;10065;49.632;8.346;2022-09-13T04:09:47;8.27;;;3.20;;
19810;SDS011;10065;49.632;8.346;2022-09-13T04:12:16;8.53;;;3.97;;
19810;SDS011;10065;49.632;8.346;2022-09-13T04:14:44;8.03;;;3.70;;
19810;SDS011;10065;49.632;8.346;2022-09-13T04:17:12;9.33;;;4.23;;
19810;SDS011;10065;49.632;8.346;2022-09-13T04:19:40;4.60;;;3.60;;
19810;SDS011;10065;49.632;8.346;2022-09-13T04:22:09;7.20;;;3.73;;
19810;SDS011;10065;49.632;8.346;2022-09-13T04:24:37;5.60;;;3.50;;
19810;SDS011;10065;49.632;8.346;2022-09-13T04:27:06;5.90;;;3.70;;
19810;SDS011;10065;49.632;8.346;2022-09-13T04:29:34;8.90;;;3.80;;
19810;SDS011;10065;49.632;8.346;2022-09-13T04:32:02;6.20;;;3.43;;
19810;SDS011;10065;49.632;8.346;2022-09-13T04:34:30;7.53;;;3.70;;
19810;SDS011;10065;49.632;8.346;2022-09-13T04:36:57;9.77;;;3.60;;
19810;SDS011;10065;49.632;8.346;2022-09-13T04:39:25;9.13;;;4.30;;
19810;SDS011;10065;49.632;8.346;2022-09-13T04:41:52;9.50;;;4.27;;
19810;SDS011;10065;49.632;8.346;2022-09-13T04:44:21;9.57;;;4.53;;
19810;SDS011;10065;49.632;8.346;2022-09-13T04:46:49;8.93;;;4.03;;
19810;SDS011;10065;49.632;8.346;2022-09-13T04:49:17;8.13;;;4.50;;
19810;SDS011;10065;49.632;8.346;2022-09-13T04:51:47;10.33;;;5.10;;
19810;SDS011;10065;49.632;8.346;2022-09-13T04:54:14;6.77;;;4.33;;
19810;SDS011;10065;49.632;8.346;2022-09-13T04:56:43;8.03;;;4.83;;
19810;SDS011;10065;49.632;8.346;2022-09-13T04:59:11;11.83;;;4.83;;
19810;SDS011;10065;49.632;8.346;2022-09-13T05:01:40;12.00;;;4.90;;
19810;SDS011;10065;49.632;8.346;2022-09-13T05:04:08;10.20;;;4.73;;
19810;SDS011;10065;49.632;8.346;2022-09-13T05:06:36;8.60;;;4.50;;
19810;SDS011;10065;49.632;8.346;2022-09-13T05:09:04;12.33;;;4.43;;
19810;SDS011;10065;49.632;8.346;2022-09-13T05:11:32;10.90;;;4.33;;
19810;SDS011;10065;49.632;8.346;2022-09-13T05:14:00;15.13;;;4.67;;
19810;SDS011;10065;49.632;8.346;2022-09-13T05:16:28;9.57;;;4.33;;
19810;SDS011;10065;49.632;8.346;2022-09-13T05:18:59;8.60;;;4.83;;
19810;SDS011;10065;49.632;8.346;2022-09-13T05:21:27;11.80;;;5.80;;
19810;SDS011;10065;49.632;8.346;2022-09-13T05:23:56;10.77;;;5.13;;
19810;SDS011;10065;49.632;8.346;2022-09-13T05:26:26;9.83;;;6.13;;
19810;SDS011;10065;49.632;8.346;2022-09-13T05:28:56;11.17;;;5.90;;
19810;SDS011;10065;49.632;8.346;2022-09-13T05:31:24;12.63;;;6.40;;
19810;SDS011;10065;49.632;8.346;2022-09-13T05:33:56;10.73;;;6.40;;
19810;SDS011;10065;49.632;8.346;2022-09-13T05:36:27;11.60;;;7.03;;
19810;SDS011;10065;49.632;8.346;2022-09-13T05:38:55;13.67;;;6.30;;
19810;SDS011;10065;49.632;8.346;2022-09-13T05:41:43;12.27;;;6.73;;
19810;SDS011;10065;49.632;8.346;2022-09-13T05:44:11;14.70;;;6.97;;
19810;SDS011;10065;49.632;8.346;2022-09-13T05:46:39;12.17;;;6.77;;
19810;SDS011;10065;49.632;8.346;2022-09-13T05:49:10;12.30;;;7.07;;
19810;SDS011;10065;49.632;8.346;2022-09-13T05:51:38;10.23;;;6.50;;
19810;SDS011;10065;49.632;8.346;2022-09-13T05:54:07;14.13;;;6.27;;
19810;SDS011;10065;49.632;8.346;2022-09-13T05:56:37;16.23;;;7.20;;
19810;SDS011;10065;49.632;8.346;2022-09-13T05:59:05;17.63;;;8.00;;
19810;SDS011;10065;49.632;8.346;2022-09-13T06:01:34;12.37;;;7.10;;
19810;SDS011;10065;49.632;8.346;2022-09-13T06:04:02;10.10;;;6.63;;
19810;SDS011;10065;49.632;8.346;2022-09-13T06:06:31;12.23;;;6.87;;
19810;SDS011;10065;49.632;8.346;2022-09-13T06:09:01;10.50;;;6.83;;
19810;SDS011;10065;49.632;8.346;2022-09-13T06:11:31;12.07;;;6.07;;
19810;SDS011;10065;49.632;8.346;2022-09-13T06:13:59;11.30;;;6.57;;
19810;SDS011;10065;49.632;8.346;2022-09-13T06:16:27;9.17;;;5.93;;
19810;SDS011;10065;49.632;8.346;2022-09-13T06:18:54;17.50;;;6.60;;
19810;SDS011;10065;49.632;8.346;2022-09-13T06:21:24;9.23;;;6.80;;
19810;SDS011;10065;49.632;8.346;2022-09-13T06:23:56;11.10;;;6.07;;
19810;SDS011;10065;49.632;8.346;2022-09-13T06:26:24;8.27;;;6.20;;
19810;SDS011;10065;49.632;8.346;2022-09-13T06:28:53;13.10;;;6.53;;
19810;SDS011;10065;49.632;8.346;2022-09-13T06:31:23;15.17;;;5.80;;
19810;SDS011;10065;49.632;8.346;2022-09-13T06:33:54;13.30;;;6.60;;
19810;SDS011;10065;49.632;8.346;2022-09-13T06:36:23;10.33;;;6.00;;
19810;SDS011;10065;49.632;8.346;2022-09-13T06:38:51;9.80;;;6.27;;
19810;SDS011;10065;49.632;8.346;2022-09-13T06:41:21;12.03;;;6.43;;
19810;SDS011;10065;49.632;8.346;2022-09-13T06:43:52;18.77;;;7.07;;
19810;SDS011;10065;49.632;8.346;2022-09-13T06:46:20;20.07;;;7.17;;
19810;SDS011;10065;49.632;8.346;2022-09-13T06:48:50;14.23;;;6.90;;
19810;SDS011;10065;49.632;8.346;2022-09-13T06:51:19;9.43;;;6.00;;
19810;SDS011;10065;49.632;8.346;2022-09-13T06:53:49;10.30;;;7.07;;
19810;SDS011;10065;49.632;8.346;2022-09-13T06:56:19;11.10;;;6.73;;
19810;SDS011;10065;49.632;8.346;2022-09-13T06:58:50;11.80;;;6.83;;
19810;SDS011;10065;49.632;8.346;2022-09-13T07:01:21;9.23;;;6.13;;
19810;SDS011;10065;49.632;8.346;2022-09-13T07:03:52;17.13;;;6.47;;
19810;SDS011;10065;49.632;8.346;2022-09-13T07:06:21;9.33;;;6.20;;
19810;SDS011;10065;49.632;8.346;2022-09-13T07:08:52;13.67;;;6.70;;
19810;SDS011;10065;49.632;8.346;2022-09-13T07:11:23;9.03;;;6.37;;
19810;SDS011;10065;49.632;8.346;2022-09-13T07:13:52;9.33;;;6.53;;
19810;SDS011;10065;49.632;8.346;2022-09-13T07:16:22;9.57;;;6.37;;
19810;SDS011;10065;49.632;8.346;2022-09-13T07:18:51;11.77;;;6.53;;
19810;SDS011;10065;49.632;8.346;2022-09-13T07:21:19;9.30;;;6.33;;
19810;SDS011;10065;49.632;8.346;2022-09-13T07:23:48;7.50;;;6.13;;
19810;SDS011;10065;49.632;8.346;2022-09-13T07:26:17;12.10;;;6.67;;
19810;SDS011;10065;49.632;8.346;2022-09-13T07:28:47;10.50;;;6.83;;
19810;SDS011;10065;49.632;8.346;2022-09-13T07:31:17;11.10;;;7.03;;
19810;SDS011;10065;49.632;8.346;2022-09-13T07:33:47;8.97;;;6.93;;
19810;SDS011;10065;49.632;8.346;2022-09-13T07:36:19;13.37;;;7.37;;
19810;SDS011;10065;49.632;8.346;2022-09-13T07:38:46;18.63;;;7.47;;
19810;SDS011;10065;49.632;8.346;2022-09-13T07:41:16;9.57;;;6.33;;
19810;SDS011;10065;49.632;8.346;2022-09-13T07:43:48;10.83;;;7.10;;
19810;SDS011;10065;49.632;8.346;2022-09-13T07:46:18;11.47;;;7.47;;
19810;SDS011;10065;49.632;8.346;2022-09-13T07:48:47;16.10;;;8.03;;
19810;SDS011;10065;49.632;8.346;2022-09-13T07:51:16;13.67;;;7.63;;
19810;SDS011;10065;49.632;8.346;2022-09-13T07:53:46;10.63;;;7.67;;
19810;SDS011;10065;49.632;8.346;2022-09-13T07:56:22;11.47;;;7.60;;
19810;SDS011;10065;49.632;8.346;2022-09-13T07:58:53;17.40;;;7.57;;
19810;SDS011;10065;49.632;8.346;2022-09-13T08:01:21;13.57;;;7.70;;
19810;SDS011;10065;49.632;8.346;2022-09-13T08:03:51;14.10;;;8.30;;
19810;SDS011;10065;49.632;8.346;2022-09-13T08:06:19;12.90;;;8.43;;
19810;SDS011;10065;49.632;8.346;2022-09-13T08:08:48;13.93;;;8.20;;
19810;SDS011;10065;49.632;8.346;2022-09-13T08:11:16;10.47;;;7.23;;
19810;SDS011;10065;49.632;8.346;2022-09-13T08:13:46;11.27;;;7.33;;
19810;SDS011;10065;49.632;8.346;2022-09-13T08:16:16;12.70;;;7.70;;
19810;SDS011;10065;49.632;8.346;2022-09-13T08:18:45;12.83;;;8.00;;
19810;SDS011;10065;49.632;8.346;2022-09-13T08:21:14;12.20;;;7.27;;
19810;SDS011;10065;49.632;8.346;2022-09-13T08:23:42;12.83;;;7.57;;
19810;SDS011;10065;49.632;8.346;2022-09-13T08:26:10;10.27;;;8.07;;
19810;SDS011;10065;49.632;8.346;2022-09-13T08:28:38;9.83;;;7.50;;
19810;SDS011;10065;49.632;8.346;2022-09-13T08:31:08;14.30;;;7.90;;
19810;SDS011;10065;49.632;8.346;2022-09-13T08:33:38;12.27;;;8.37;;
19810;SDS011;10065;49.632;8.346;2022-09-13T08:36:12;11.97;;;7.73;;
19810;SDS011;10065;49.632;8.346;2022-09-13T08:38:43;13.77;;;8.07;;
19810;SDS011;10065;49.632;8.346;2022-09-13T08:41:26;14.53;;;8.53;;
19810;SDS011;10065;49.632;8.346;2022-09-13T08:44:14;11.80;;;7.07;;
19810;SDS011;10065;49.632;8.346;2022-09-13T08:46:51;18.87;;;8.83;;
19810;SDS011;10065;49.632;8.346;2022-09-13T08:49:26;12.60;;;9.17;;
19810;SDS011;10065;49.632;8.346;2022-09-13T08:51:57;14.87;;;9.80;;
19810;SDS011;10065;49.632;8.346;2022-09-13T08:54:29;16.13;;;9.43;;
19810;SDS011;10065;49.632;8.346;2022-09-13T08:56:57;17.07;;;9.40;;
19810;SDS011;10065;49.632;8.346;2022-09-13T08:59:36;13.27;;;8.40;;
19810;SDS011;10065;49.632;8.346;2022-09-13T09:02:17;14.27;;;8.73;;
19810;SDS011;10065;49.632;8.346;2022-09-13T09:04:55;14.30;;;8.30;;
19810;SDS011;10065;49.632;8.346;2022-09-13T09:07:30;17.77;;;8.73;;
19810;SDS011;10065;49.632;8.346;2022-09-13T09:10:02;13.80;;;7.93;;
19810;SDS011;10065;49.632;8.346;2022-09-13T09:12:35;12.87;;;6.63;;
19810;SDS011;10065;49.632;8.346;2022-09-13T09:15:08;11.23;;;6.43;;
19810;SDS011;10065;49.632;8.346;2022-09-13T09:17:43;10.50;;;6.37;;
19810;SDS011;10065;49.632;8.346;2022-09-13T09:20:25;8.70;;;6.03;;
19810;SDS011;10065;49.632;8.346;2022-09-13T09:22:59;13.27;;;6.93;;
19810;SDS011;10065;49.632;8.346;2022-09-13T09:25:30;10.17;;;6.70;;
19810;SDS011;10065;49.632;8.346;2022-09-13T09:28:00;10.80;;;6.03;;
19810;SDS011;10065;49.632;8.346;2022-09-13T09:30:39;9.70;;;5.97;;
19810;SDS011;10065;49.632;8.346;2022-09-13T09:33:27;13.57;;;6.17;;
19810;SDS011;10065;49.632;8.346;2022-09-13T09:36:09;15.73;;;5.53;;
19810;SDS011;10065;49.632;8.346;2022-09-13T09:38:41;12.33;;;6.93;;
19810;SDS011;10065;49.632;8.346;2022-09-13T09:41:14;12.57;;;5.70;;
19810;SDS011;10065;49.632;8.346;2022-09-13T09:43:49;8.73;;;6.03;;
19810;SDS011;10065;49.632;8.346;2022-09-13T09:46:23;10.47;;;6.33;;
19810;SDS011;10065;49.632;8.346;2022-09-13T09:48:55;9.07;;;5.40;;
19810;SDS011;10065;49.632;8.346;2022-09-13T09:51:30;10.80;;;6.10;;
19810;SDS011;10065;49.632;8.346;2022-09-13T09:54:01;10.03;;;5.87;;
19810;SDS011;10065;49.632;8.346;2022-09-13T09:56:32;9.73;;;4.87;;
19810;SDS011;10065;49.632;8.346;2022-09-13T09:59:01;7.87;;;5.10;;
19810;SDS011;10065;49.632;8.346;2022-09-13T10:01:30;8.27;;;4.83;;
19810;SDS011;10065;49.632;8.346;2022-09-13T10:04:03;10.40;;;4.80;;
19810;SDS011;10065;49.632;8.346;2022-09-13T10:06:36;15.00;;;5.30;;
19810;SDS011;10065;49.632;8.346;2022-09-13T10:09:06;8.70;;;5.30;;
19810;SDS011;10065;49.632;8.346;2022-09-13T10:11:43;7.90;;;5.50;;
19810;SDS011;10065;49.632;8.346;2022-09-13T10:17:14;10.57;;;5.57;;
19810;SDS011;10065;49.632;8.346;2022-09-13T10:19:51;15.27;;;5.90;;
19810;SDS011;10065;49.632;8.346;2022-09-13T10:22:22;12.23;;;5.73;;
19810;SDS011;10065;49.632;8.346;2022-09-13T10:24:50;6.70;;;4.73;;
19810;SDS011;10065;49.632;8.346;2022-09-13T10:27:23;11.17;;;5.77;;
19810;SDS011;10065;49.632;8.346;2022-09-13T10:29:59;8.53;;;5.17;;
19810;SDS011;10065;49.632;8.346;2022-09-13T10:32:29;8.53;;;5.27;;
19810;SDS011;10065;49.632;8.346;2022-09-13T10:34:59;10.33;;;5.60;;
19810;SDS011;10065;49.632;8.346;2022-09-13T10:37:35;10.77;;;5.20;;
19810;SDS011;10065;49.632;8.346;2022-09-13T10:40:04;10.40;;;5.80;;
19810;SDS011;10065;49.632;8.346;2022-09-13T10:42:49;11.57;;;6.47;;
19810;SDS011;10065;49.632;8.346;2022-09-13T10:45:20;13.00;;;5.40;;
19810;SDS011;10065;49.632;8.346;2022-09-13T10:47:51;11.57;;;5.63;;
19810;SDS011;10065;49.632;8.346;2022-09-13T10:50:21;13.10;;;5.73;;
19810;SDS011;10065;49.632;8.346;2022-09-13T10:52:52;8.63;;;5.63;;
19810;SDS011;10065;49.632;8.346;2022-09-13T10:55:28;9.07;;;5.47;;
19810;SDS011;10065;49.632;8.346;2022-09-13T10:58:16;11.17;;;5.90;;
19810;SDS011;10065;49.632;8.346;2022-09-13T11:00:48;11.20;;;5.60;;
19810;SDS011;10065;49.632;8.346;2022-09-13T11:03:55;9.00;;;5.63;;
19810;SDS011;10065;49.632;8.346;2022-09-13T11:06:41;9.90;;;5.97;;
19810;SDS011;10065;49.632;8.346;2022-09-13T11:09:16;10.33;;;6.70;;
19810;SDS011;10065;49.632;8.346;2022-09-13T11:11:48;12.63;;;6.27;;
19810;SDS011;10065;49.632;8.346;2022-09-13T11:14:27;12.53;;;6.50;;
19810;SDS011;10065;49.632;8.346;2022-09-13T11:17:12;13.17;;;6.27;;
19810;SDS011;10065;49.632;8.346;2022-09-13T11:19:52;8.03;;;5.93;;
19810;SDS011;10065;49.632;8.346;2022-09-13T11:25:45;9.37;;;5.80;;
19810;SDS011;10065;49.632;8.346;2022-09-13T11:28:24;8.77;;;6.37;;
19810;SDS011;10065;49.632;8.346;2022-09-13T11:31:03;10.10;;;6.53;;
19810;SDS011;10065;49.632;8.346;2022-09-13T11:33:45;9.43;;;6.53;;
19810;SDS011;10065;49.632;8.346;2022-09-13T11:36:27;9.40;;;7.30;;
19810;SDS011;10065;49.632;8.346;2022-09-13T11:39:10;10.10;;;7.33;;
19810;SDS011;10065;49.632;8.346;2022-09-13T11:41:49;10.57;;;7.90;;
19810;SDS011;10065;49.632;8.346;2022-09-13T11:44:35;15.43;;;7.47;;
19810;SDS011;10065;49.632;8.346;2022-09-13T11:47:33;11.17;;;7.27;;
19810;SDS011;10065;49.632;8.346;2022-09-13T11:50:21;11.50;;;6.87;;
19810;SDS011;10065;49.632;8.346;2022-09-13T11:53:00;10.17;;;7.20;;
19810;SDS011;10065;49.632;8.346;2022-09-13T11:55:38;11.60;;;6.40;;
19810;SDS011;10065;49.632;8.346;2022-09-13T11:58:12;14.17;;;7.17;;
19810;SDS011;10065;49.632;8.346;2022-09-13T12:00:43;12.13;;;7.33;;
19810;SDS011;10065;49.632;8.346;2022-09-13T12:03:14;11.00;;;7.20;;
19810;SDS011;10065;49.632;8.346;2022-09-13T12:05:47;10.03;;;6.53;;
19810;SDS011;10065;49.632;8.346;2022-09-13T12:08:19;9.40;;;7.03;;
19810;SDS011;10065;49.632;8.346;2022-09-13T12:10:51;11.33;;;7.20;;
19810;SDS011;10065;49.632;8.346;2022-09-13T12:13:25;14.40;;;7.57;;
19810;SDS011;10065;49.632;8.346;2022-09-13T12:15:56;14.93;;;7.07;;
19810;SDS011;10065;49.632;8.346;2022-09-13T12:18:28;9.70;;;6.50;;
19810;SDS011;10065;49.632;8.346;2022-09-13T12:21:02;9.73;;;7.13;;
19810;SDS011;10065;49.632;8.346;2022-09-13T12:23:35;10.47;;;6.90;;
19810;SDS011;10065;49.632;8.346;2022-09-13T12:26:09;11.43;;;6.90;;
19810;SDS011;10065;49.632;8.346;2022-09-13T12:28:45;9.07;;;6.40;;
19810;SDS011;10065;49.632;8.346;2022-09-13T12:31:19;17.50;;;7.50;;
19810;SDS011;10065;49.632;8.346;2022-09-13T12:33:49;14.00;;;7.43;;
19810;SDS011;10065;49.632;8.346;2022-09-13T12:36:21;11.47;;;7.23;;
19810;SDS011;10065;49.632;8.346;2022-09-13T12:42:05;11.37;;;7.43;;
19810;SDS011;10065;49.632;8.346;2022-09-13T12:44:59;11.30;;;7.13;;
19810;SDS011;10065;49.632;8.346;2022-09-13T12:47:52;12.47;;;6.50;;
19810;SDS011;10065;49.632;8.346;2022-09-13T12:50:38;15.67;;;8.17;;
19810;SDS011;10065;49.632;8.346;2022-09-13T12:53:28;12.20;;;8.37;;
19810;SDS011;10065;49.632;8.346;2022-09-13T12:56:23;12.00;;;7.80;;
19810;SDS011;10065;49.632;8.346;2022-09-13T12:59:14;16.20;;;7.97;;
19810;SDS011;10065;49.632;8.346;2022-09-13T13:01:53;13.97;;;8.47;;
19810;SDS011;10065;49.632;8.346;2022-09-13T13:04:22;12.27;;;7.03;;
19810;SDS011;10065;49.632;8.346;2022-09-13T13:06:54;16.57;;;7.73;;
19810;SDS011;10065;49.632;8.346;2022-09-13T13:09:26;13.73;;;7.93;;
19810;SDS011;10065;49.632;8.346;2022-09-13T13:12:00;13.30;;;8.33;;
19810;SDS011;10065;49.632;8.346;2022-09-13T13:14:41;13.35;;;8.63;;
19810;SDS011;10065;49.632;8.346;2022-09-13T13:23:14;12.32;;;6.97;;
19810;SDS011;10065;49.632;8.346;2022-09-13T13:25:54;15.18;;;8.20;;
19810;SDS011;10065;49.632;8.346;2022-09-13T13:31:32;11.95;;;8.13;;
19810;SDS011;10065;49.632;8.346;2022-09-13T13:34:25;14.50;;;7.97;;
19810;SDS011;10065;49.632;8.346;2022-09-13T13:37:01;14.45;;;7.65;;
19810;SDS011;10065;49.632;8.346;2022-09-13T13:39:34;12.95;;;7.47;;
19810;SDS011;10065;49.632;8.346;2022-09-13T13:42:13;13.10;;;6.15;;
19810;SDS011;10065;49.632;8.346;2022-09-13T13:51:17;16.50;;;7.57;;
19810;SDS011;10065;49.632;8.346;2022-09-13T13:53:55;16.95;;;7.65;;
19810;SDS011;10065;49.632;8.346;2022-09-13T13:56:27;15.10;;;7.35;;
19810;SDS011;10065;49.632;8.346;2022-09-13T13:59:02;13.10;;;7.20;;
19810;SDS011;10065;49.632;8.346;2022-09-13T14:01:35;13.43;;;7.65;;
19810;SDS011;10065;49.632;8.346;2022-09-13T14:07:48;14.05;;;8.07;;
19810;SDS011;10065;49.632;8.346;2022-09-13T14:10:30;15.65;;;7.53;;
19810;SDS011;10065;49.632;8.346;2022-09-13T14:13:14;14.48;;;7.85;;
19810;SDS011;10065;49.632;8.346;2022-09-13T14:15:51;17.95;;;8.90;;
19810;SDS011;10065;49.632;8.346;2022-09-13T14:18:39;13.35;;;8.02;;
19810;SDS011;10065;49.632;8.346;2022-09-13T14:21:21;14.38;;;7.72;;
19810;SDS011;10065;49.632;8.346;2022-09-13T14:26:42;16.55;;;7.13;;
19810;SDS011;10065;49.632;8.346;2022-09-13T14:29:10;11.75;;;8.20;;
19810;SDS011;10065;49.632;8.346;2022-09-13T14:31:44;14.43;;;7.78;;
19810;SDS011;10065;49.632;8.346;2022-09-13T14:34:20;14.38;;;7.63;;
19810;SDS011;10065;49.632;8.346;2022-09-13T14:36:53;15.98;;;7.80;;
19810;SDS011;10065;49.632;8.346;2022-09-13T14:39:24;13.52;;;8.82;;
19810;SDS011;10065;49.632;8.346;2022-09-13T14:41:59;11.18;;;7.03;;
19810;SDS011;10065;49.632;8.346;2022-09-13T14:44:28;16.67;;;8.15;;
19810;SDS011;10065;49.632;8.346;2022-09-13T14:46:58;16.23;;;7.13;;
19810;SDS011;10065;49.632;8.346;2022-09-13T14:49:33;12.43;;;6.68;;
19810;SDS011;10065;49.632;8.346;2022-09-13T14:52:03;11.60;;;7.10;;
19810;SDS011;10065;49.632;8.346;2022-09-13T14:54:37;9.32;;;6.13;;
19810;SDS011;10065;49.632;8.346;2022-09-13T14:57:14;9.63;;;5.68;;
19810;SDS011;10065;49.632;8.346;2022-09-13T14:59:49;9.23;;;5.90;;
19810;SDS011;10065;49.632;8.346;2022-09-13T15:02:22;9.10;;;6.55;;
19810;SDS011;10065;49.632;8.346;2022-09-13T15:04:52;12.75;;;7.20;;
19810;SDS011;10065;49.632;8.346;2022-09-13T15:07:22;13.00;;;7.85;;
19810;SDS011;10065;49.632;8.346;2022-09-13T15:10:03;11.35;;;7.00;;
19810;SDS011;10065;49.632;8.346;2022-09-13T15:12:33;10.65;;;6.32;;
19810;SDS011;10065;49.632;8.346;2022-09-13T15:17:53;13.18;;;6.85;;
19810;SDS011;10065;49.632;8.346;2022-09-13T15:20:22;10.93;;;6.43;;
19810;SDS011;10065;49.632;8.346;2022-09-13T15:22:51;11.30;;;6.43;;
19810;SDS011;10065;49.632;8.346;2022-09-13T15:25:22;10.30;;;6.97;;
19810;SDS011;10065;49.632;8.346;2022-09-13T15:27:53;10.00;;;6.05;;
19810;SDS011;10065;49.632;8.346;2022-09-13T15:30:23;8.85;;;6.03;;
19810;SDS011;10065;49.632;8.346;2022-09-13T15:33:03;9.50;;;5.88;;
19810;SDS011;10065;49.632;8.346;2022-09-13T15:35:44;13.02;;;6.35;;
19810;SDS011;10065;49.632;8.346;2022-09-13T15:38:17;11.32;;;5.93;;
19810;SDS011;10065;49.632;8.346;2022-09-13T15:40:57;9.98;;;5.63;;
19810;SDS011;10065;49.632;8.346;2022-09-13T15:43:28;10.60;;;5.88;;
19810;SDS011;10065;49.632;8.346;2022-09-13T15:45:57;15.40;;;6.03;;
19810;SDS011;10065;49.632;8.346;2022-09-13T15:48:28;10.98;;;5.45;;
19810;SDS011;10065;49.632;8.346;2022-09-13T15:51:10;12.82;;;6.45;;